Time;durP1;ratioP1;P1;durP2;ratioP2;P2;SDS_P1;SDS_P2;PMS_P1;PMS_P2;Temp;Humidity;BMP_temperature;BMP_pressure;BME280_temperature;BME280_humidity;BME280_pressure;Samples;Min_cycle;Max_cycle;Signal;HPM_P1;HPM_P2
2021/01/20 00:01:01;;;;;;;44.43;18.07;;;;;;;-14.23;66.32;100436.13;1725187;80;21149;-70
2021/01/20 00:03:29;;;;;;;50.40;17.13;;;;;;;-14.38;66.52;100427.84;1718459;82;21602;-70
2021/01/20 00:05:57;;;;;;;43.68;17.25;;;;;;;-14.50;67.09;100440.37;1733587;80;21232;-79
2021/01/20 00:08:25;;;;;;;44.50;17.55;;;;;;;-14.59;67.26;100436.47;1730958;81;21137;-71
2021/01/20 00:10:53;;;;;;;;;;;;;;;-14.66;67.36;100436.89;1740911;80;21164;-81
2021/01/20 00:13:20;;;;;;;44.88;16.95;;;;;;;-14.75;67.49;100436.96;1719187;83;20179;-73
2021/01/20 00:15:48;;;;;;;47.48;18.57;;;;;;;-14.82;67.75;100436.08;1719170;80;21144;-72
2021/01/20 00:18:17;;;;;;;48.10;18.53;;;;;;;-14.80;67.92;100442.08;1736697;82;21138;-79
2021/01/20 00:20:45;;;;;;;47.20;17.80;;;;;;;-14.78;68.01;100440.21;1740232;80;21196;-73
2021/01/20 00:23:14;;;;;;;50.30;18.77;;;;;;;-14.66;67.96;100442.16;1715453;83;21147;-79
2021/01/20 00:25:41;;;;;;;;;;;;;;;-14.63;68.08;100443.30;1717577;84;21143;-72
2021/01/20 00:28:09;;;;;;;47.30;18.27;;;;;;;-14.64;67.71;100441.13;1730104;80;20176;-72
2021/01/20 00:30:37;;;;;;;55.15;19.37;;;;;;;-14.75;67.51;100432.17;1715200;84;21153;-78
2021/01/20 00:33:05;;;;;;;45.70;19.05;;;;;;;-14.80;68.04;100435.06;1714932;80;21416;-77
2021/01/20 00:43:10;;;;;;;48.27;18.90;;;;;;;-14.93;68.68;100424.84;1811615;77;22139;-80
2021/01/20 00:45:39;;;;;;;49.33;17.43;;;;;;;-15.03;68.57;100423.20;1724714;83;21129;-73
2021/01/20 00:48:10;;;;;;;44.53;18.20;;;;;;;-15.19;68.76;100414.45;1710891;82;21132;-73
2021/01/20 00:50:39;;;;;;;47.70;18.53;;;;;;;-15.28;69.17;100421.52;1737843;82;21274;-73
2021/01/20 00:53:07;;;;;;;;;;;;;;;-15.21;69.21;100414.16;1735883;81;21141;-74
2021/01/20 00:55:34;;;;;;;;;;;;;;;-15.13;69.19;100416.75;1718191;84;20192;-77
2021/01/20 00:58:02;;;;;;;52.83;18.37;;;;;;;-15.06;69.03;100412.00;1705305;81;20195;-78
2021/01/20 01:00:30;;;;;;;45.70;18.37;;;;;;;-15.00;68.84;100412.50;1716100;83;21129;-72
2021/01/20 01:02:58;;;;;;;54.48;18.65;;;;;;;-14.98;68.57;100415.06;1723591;82;21133;-71
2021/01/20 01:05:26;;;;;;;;;;;;;;;-14.98;68.56;100419.00;1745309;82;21126;-78
2021/01/20 01:07:56;;;;;;;48.37;17.43;;;;;;;-14.92;68.51;100417.82;1700080;84;20168;-72
2021/01/20 01:10:24;;;;;;;48.47;18.63;;;;;;;-14.83;68.41;100415.98;1712443;82;21674;-72
2021/01/20 01:13:06;;;;;;;54.00;19.17;;;;;;;-14.74;68.16;100419.40;1705701;83;21124;-78
2021/01/20 01:15:36;;;;;;;50.77;19.30;;;;;;;-14.67;67.82;100424.22;1712023;81;21158;-71
2021/01/20 01:18:04;;;;;;;53.10;19.10;;;;;;;-14.63;67.48;100436.27;1725809;81;21127;-71
2021/01/20 01:20:33;;;;;;;58.53;21.47;;;;;;;-14.62;67.21;100430.55;1725800;81;21551;-72
2021/01/20 01:23:01;;;;;;;56.45;21.80;;;;;;;-14.82;67.19;100430.82;1725997;81;21112;-71
2021/01/20 01:25:29;;;;;;;54.77;20.92;;;;;;;-15.00;67.57;100435.31;1697303;83;21152;-80
2021/01/20 01:27:57;;;;;;;53.00;21.30;;;;;;;-15.05;67.92;100437.34;1725885;81;21151;-79
2021/01/20 01:30:26;;;;;;;52.87;20.67;;;;;;;-15.10;67.92;100434.94;1723860;80;21117;-79
2021/01/20 01:32:53;;;;;;;56.15;20.80;;;;;;;-15.17;68.10;100432.73;1733773;82;21121;-73
2021/01/20 01:35:24;;;;;;;57.23;20.73;;;;;;;-15.22;68.16;100434.75;1714531;80;21897;-80
2021/01/20 01:37:57;;;;;;;55.50;21.33;;;;;;;-15.22;68.42;100434.30;1724166;81;21116;-78
2021/01/20 01:40:45;;;;;;;52.03;20.33;;;;;;;-15.25;68.15;100438.39;1723834;82;21098;-71
2021/01/20 01:43:15;;;;;;;52.90;20.83;;;;;;;-15.29;68.28;100439.95;1654795;83;21713;-72
2021/01/20 01:45:44;;;;;;;57.03;21.23;;;;;;;-15.36;68.39;100447.77;1715309;80;21136;-78
2021/01/20 01:48:12;;;;;;;55.00;20.77;;;;;;;-15.41;68.43;100444.09;1715613;83;21145;-79
2021/01/20 01:50:41;;;;;;;56.83;19.37;;;;;;;-15.49;68.47;100444.98;1715713;80;21195;-72
2021/01/20 01:53:09;;;;;;;;;;;;;;;-15.57;68.62;100443.22;1717951;84;21273;-79
2021/01/20 01:55:50;;;;;;;53.73;19.37;;;;;;;-15.77;68.85;100452.59;1673005;83;20664;-80
2021/01/20 01:58:26;;;;;;;48.93;18.57;;;;;;;-15.80;69.11;100447.48;1715138;82;21604;-78
2021/01/20 02:00:56;;;;;;;50.67;18.93;;;;;;;-15.84;69.03;100451.21;1737871;82;21196;-78
2021/01/20 02:03:25;;;;;;;53.97;21.03;;;;;;;-15.87;69.29;100448.73;1716574;80;21145;-72
2021/01/20 02:05:54;;;;;;;53.57;21.07;;;;;;;-15.92;69.32;100452.05;1715026;83;21262;-78
2021/01/20 02:08:23;;;;;;;53.70;19.90;;;;;;;-16.01;69.51;100462.53;1719245;80;21260;-77
2021/01/20 02:10:55;;;;;;;53.57;21.03;;;;;;;-16.11;69.73;100465.72;1723974;82;21165;-78
2021/01/20 02:13:53;;;;;;;54.43;20.37;;;;;;;-16.16;69.84;100462.47;1715681;80;21139;-73
2021/01/20 02:16:32;;;;;;;61.97;21.93;;;;;;;-16.21;70.00;100480.20;1714626;83;21198;-71
2021/01/20 02:19:02;;;;;;;52.67;20.73;;;;;;;-16.28;70.12;100477.86;1707922;81;21255;-78
2021/01/20 02:21:55;;;;;;;54.73;21.50;;;;;;;-16.26;70.25;100481.25;1664944;84;21161;-70
2021/01/20 02:24:53;;;;;;;55.20;21.57;;;;;;;-16.18;70.24;100480.87;1730173;82;21126;-79
2021/01/20 02:27:33;;;;;;;55.57;20.83;;;;;;;-16.15;70.07;100483.80;1717065;83;21149;-70
2021/01/20 02:30:09;;;;;;;57.37;22.17;;;;;;;-16.13;69.97;100478.02;1717075;81;21143;-79
2021/01/20 02:32:41;;;;;;;53.57;19.60;;;;;;;-16.24;69.99;100482.02;1699084;84;21120;-79
2021/01/20 02:35:10;;;;;;;56.00;19.27;;;;;;;-16.27;70.23;100488.74;1716215;81;21598;-78
2021/01/20 02:37:38;;;;;;;55.33;20.63;;;;;;;-16.24;70.12;100488.56;1707700;84;21123;-70
2021/01/20 02:40:17;;;;;;;50.40;20.50;;;;;;;-16.22;70.07;100496.83;1701721;82;21117;-79
2021/01/20 02:42:47;;;;;;;55.27;21.03;;;;;;;-16.22;69.72;100491.59;1719164;83;21237;-78
2021/01/20 02:45:17;;;;;;;55.03;21.40;;;;;;;-16.29;69.84;100492.36;1718349;81;21206;-81
2021/01/20 02:47:48;;;;;;;56.47;21.90;;;;;;;-16.27;70.06;100493.98;1707734;84;21147;-78
2021/01/20 02:50:18;;;;;;;56.87;20.73;;;;;;;-16.17;69.96;100499.61;1738754;81;21121;-72
2021/01/20 02:53:03;;;;;;;58.77;21.30;;;;;;;-16.21;69.28;100495.91;1720221;83;21609;-72
2021/01/20 02:56:02;;;;;;;59.03;21.60;;;;;;;-16.29;69.47;100494.49;1724508;81;21282;-79
2021/01/20 02:58:50;;;;;;;57.60;22.27;;;;;;;-16.31;69.57;100500.27;1740730;82;21235;-79
2021/01/20 03:01:26;;;;;;;57.70;21.50;;;;;;;-16.36;69.38;100497.03;1714916;81;21235;-70
2021/01/20 03:03:54;;;;;;;55.97;20.90;;;;;;;-16.40;69.39;100507.28;1709521;84;21212;-71
2021/01/20 03:06:22;;;;;;;62.10;21.17;;;;;;;-16.48;69.26;100508.55;1731089;81;21757;-79
2021/01/20 03:08:50;;;;;;;53.50;19.87;;;;;;;-16.54;69.69;100508.91;1720253;83;21149;-79
2021/01/20 03:11:17;;;;;;;58.05;20.05;;;;;;;-16.44;69.76;100510.95;1693379;83;21145;-71
2021/01/20 03:13:45;;;;;;;49.65;19.32;;;;;;;-16.43;69.43;100507.42;1720286;83;21157;-80
2021/01/20 03:16:13;;;;;;;54.05;18.40;;;;;;;-16.43;69.41;100510.04;1728043;81;21129;-78
2021/01/20 03:18:41;;;;;;;50.53;18.17;;;;;;;-16.36;69.44;100507.51;1722197;83;21592;-77
2021/01/20 03:21:08;;;;;;;50.15;17.75;;;;;;;-16.26;68.90;100511.83;1723659;81;21658;-78
2021/01/20 03:23:36;;;;;;;46.47;16.83;;;;;;;-16.19;68.68;100517.64;1698048;83;21147;-78
2021/01/20 03:26:04;;;;;;;47.03;16.65;;;;;;;-16.15;68.43;100512.63;1724101;81;21252;-70
2021/01/20 03:28:32;;;;;;;43.98;17.20;;;;;;;-16.20;68.24;100524.66;1738202;82;21185;-71
2021/01/20 03:30:59;;;;;;;48.75;17.50;;;;;;;-16.31;68.22;100530.86;1728211;83;21176;-78
2021/01/20 03:33:27;;;;;;;52.03;17.05;;;;;;;-16.42;68.35;100535.33;1727674;81;21131;-80
2021/01/20 03:35:56;;;;;;;50.90;17.20;;;;;;;-16.51;68.44;100535.73;1709400;84;21161;-73
2021/01/20 03:38:24;;;;;;;47.65;17.42;;;;;;;-16.59;68.69;100536.59;1741377;81;21694;-70
2021/01/20 03:40:52;;;;;;;44.95;15.70;;;;;;;-16.67;68.73;100541.36;1725669;82;21195;-70
2021/01/20 03:43:19;;;;;;;46.15;15.98;;;;;;;-16.76;69.08;100539.59;1727731;81;21161;-80
2021/01/20 03:45:47;;;;;;;45.98;18.05;;;;;;;-16.82;69.24;100540.72;1725535;82;21174;-72
2021/01/20 03:48:14;;;;;;;44.58;17.35;;;;;;;-16.84;69.51;100544.33;1723824;82;21638;-78
2021/01/20 03:50:42;;;;;;;47.35;16.27;;;;;;;-16.84;69.60;100546.95;1725472;83;21140;-77
2021/01/20 03:53:10;;;;;;;45.70;16.77;;;;;;;-16.86;69.65;100541.80;1724897;82;21160;-79
2021/01/20 03:55:38;;;;;;;48.78;15.70;;;;;;;-16.84;69.60;100548.26;1725452;83;21186;-72
2021/01/20 03:58:06;;;;;;;;;;;;;;;-16.81;69.65;100545.50;1729326;82;21243;-72
2021/01/20 04:00:33;;;;;;;43.85;15.78;;;;;;;-16.72;69.60;100555.58;1715928;82;20474;-71
2021/01/20 04:03:01;;;;;;;44.67;16.75;;;;;;;-16.68;69.36;100558.43;1719775;83;21156;-82
2021/01/20 04:05:31;;;;;;;49.23;16.83;;;;;;;-16.72;69.42;100549.89;1720605;82;21141;-79
2021/01/20 04:07:59;;;;;;;46.00;17.17;;;;;;;-16.77;69.30;100551.86;1725686;83;21230;-80
2021/01/20 04:10:27;;;;;;;45.43;16.43;;;;;;;-16.84;69.41;100549.56;1718261;80;21149;-72
2021/01/20 04:12:55;;;;;;;45.45;15.50;;;;;;;-16.93;69.62;100544.31;1725462;82;21219;-83
2021/01/20 04:15:23;;;;;;;;;;;;;;;-16.95;69.63;100555.31;1727318;82;21642;-80
2021/01/20 04:17:51;;;;;;;;;;;;;;;-17.02;69.78;100551.25;1727971;83;20157;-81
2021/01/20 04:20:19;;;;;;;43.57;16.53;;;;;;;-17.00;69.92;100557.29;1735026;82;20471;-72
2021/01/20 04:22:46;;;;;;;;;;;;;;;-16.91;69.93;100557.72;1744807;82;21161;-72
2021/01/20 04:25:14;;;;;;;49.35;16.45;;;;;;;-16.81;69.55;100562.52;1740505;81;20186;-72
2021/01/20 04:27:42;;;;;;;53.75;18.95;;;;;;;-16.76;69.31;100563.16;1742148;82;21142;-82
2021/01/20 04:30:10;;;;;;;49.35;19.07;;;;;;;-16.79;69.01;100557.61;1720433;81;21155;-72
2021/01/20 04:32:38;;;;;;;45.83;18.17;;;;;;;-16.80;68.96;100565.09;1725405;81;21156;-82
2021/01/20 04:35:07;;;;;;;65.87;24.00;;;;;;;-16.78;68.89;100570.24;1725402;81;21641;-74
2021/01/20 04:37:35;;;;;;;62.13;25.20;;;;;;;-16.75;68.65;100568.34;1750269;82;21129;-72
2021/01/20 04:40:05;;;;;;;73.87;26.80;;;;;;;-16.80;68.30;100570.32;1706202;83;21148;-79
2021/01/20 04:42:33;;;;;;;66.17;25.87;;;;;;;-16.80;68.19;100567.70;1709904;81;21151;-73
2021/01/20 04:45:01;;;;;;;;;;;;;;;-16.79;68.09;100573.77;1688142;84;21246;-79
2021/01/20 04:47:29;;;;;;;73.37;26.30;;;;;;;-16.79;68.01;100570.69;1746068;81;20182;-71
2021/01/20 04:49:57;;;;;;;69.50;26.47;;;;;;;-16.81;67.83;100571.23;1703089;83;21125;-72
2021/01/20 04:52:26;;;;;;;;;;;;;;;-16.85;67.83;100577.53;1675348;83;21164;-81
2021/01/20 04:54:55;;;;;;;53.33;21.60;;;;;;;-16.87;67.98;100574.11;1721097;83;20160;-70
2021/01/20 04:57:23;;;;;;;57.73;19.67;;;;;;;-16.94;67.95;100578.78;1720346;80;21174;-71
2021/01/20 04:59:51;;;;;;;54.23;20.40;;;;;;;-17.00;68.34;100583.45;1720667;83;21166;-82
2021/01/20 05:02:19;;;;;;;;;;;;;;;-17.03;68.61;100586.20;1731059;80;21285;-72
2021/01/20 05:04:47;;;;;;;54.83;20.10;;;;;;;-17.05;68.71;100588.87;1736429;80;20291;-79
2021/01/20 05:07:14;;;;;;;62.25;21.55;;;;;;;-17.01;68.77;100590.91;1713980;82;21127;-74
2021/01/20 05:09:42;;;;;;;;;;;;;;;-16.99;68.70;100592.98;1727420;83;21575;-71
2021/01/20 05:12:40;;;;;;;61.50;20.43;;;;;;;-17.04;68.27;100596.27;1751159;80;20165;-71
2021/01/20 05:15:11;;;;;;;56.37;20.00;;;;;;;-17.11;68.39;100602.69;1740498;82;21163;-73
2021/01/20 05:18:00;;;;;;;76.53;24.57;;;;;;;-17.13;68.83;100606.70;1694747;82;21207;-73
2021/01/20 05:20:37;;;;;;;63.67;21.47;;;;;;;-17.03;69.08;100607.13;1722020;82;21199;-81
2021/01/20 05:23:07;;;;;;;59.67;21.73;;;;;;;-16.90;69.08;100609.61;1721931;81;21134;-80
2021/01/20 05:25:40;;;;;;;65.23;21.83;;;;;;;-16.84;68.74;100602.77;1729532;82;21144;-77
2021/01/20 05:28:21;;;;;;;59.00;21.33;;;;;;;-16.82;68.49;100599.62;1695403;80;21230;-76
2021/01/20 05:30:57;;;;;;;60.10;21.33;;;;;;;-16.81;68.57;100610.50;1722813;82;21107;-77
2021/01/20 05:33:39;;;;;;;57.93;20.77;;;;;;;-16.79;68.29;100611.27;1736539;81;21137;-70
2021/01/20 05:36:13;;;;;;;58.37;19.73;;;;;;;-16.80;68.24;100613.52;1731805;81;21145;-73
2021/01/20 05:38:50;;;;;;;50.30;18.37;;;;;;;-16.75;68.06;100623.32;1728897;81;22080;-75
2021/01/20 05:41:24;;;;;;;56.75;21.50;;;;;;;-16.81;67.90;100630.13;1733596;81;21118;-72
2021/01/20 05:44:15;;;;;;;63.57;22.47;;;;;;;-16.91;68.01;100626.22;1725806;81;21158;-73
2021/01/20 05:46:43;;;;;;;73.40;25.97;;;;;;;-17.10;68.29;100634.49;1725581;81;21514;-83
2021/01/20 05:49:26;;;;;;;76.57;30.17;;;;;;;-17.12;68.44;100634.98;1716149;81;21238;-84
2021/01/20 05:51:55;;;;;;;80.00;29.97;;;;;;;-17.18;68.43;100649.66;1727925;82;21160;-70
2021/01/20 05:54:33;;;;;;;82.77;32.40;;;;;;;-17.16;68.55;100650.44;1712209;81;21116;-82
2021/01/20 05:57:19;;;;;;;76.03;29.60;;;;;;;-17.17;68.38;100648.73;1737654;80;21606;-73
2021/01/20 05:59:50;;;;;;;72.72;28.62;;;;;;;-17.16;68.12;100656.98;1723402;80;21177;-75
2021/01/20 06:02:20;;;;;;;81.10;27.67;;;;;;;-17.16;67.94;100662.21;1727261;82;21248;-74
2021/01/20 06:04:48;;;;;;;72.97;27.23;;;;;;;-17.17;67.69;100661.80;1731770;80;21148;-75
2021/01/20 06:07:16;;;;;;;;;;;;;;;-17.22;67.62;100657.23;1730461;82;21186;-76
2021/01/20 06:09:45;;;;;;;71.63;24.90;;;;;;;-17.23;67.77;100656.86;1732221;82;20338;-80
2021/01/20 06:12:14;;;;;;;63.60;23.90;;;;;;;-17.24;67.55;100657.76;1709081;81;21148;-73
2021/01/20 06:14:43;;;;;;;64.90;25.00;;;;;;;-17.28;67.84;100654.89;1742196;82;21152;-79
2021/01/20 06:17:20;;;;;;;65.80;25.20;;;;;;;-17.27;67.47;100656.57;1691669;83;21152;-72
2021/01/20 06:19:50;;;;;;;63.87;25.27;;;;;;;-17.30;67.50;100658.03;1736466;80;21619;-74
2021/01/20 06:22:18;;;;;;;77.03;26.77;;;;;;;-17.29;67.67;100657.10;1726501;80;21148;-72
2021/01/20 06:24:49;;;;;;;76.17;28.70;;;;;;;-17.25;67.70;100660.83;1742159;80;21182;-74
2021/01/20 06:27:43;;;;;;;79.13;27.53;;;;;;;-17.19;67.76;100663.19;1766971;80;21157;-77
2021/01/20 06:30:41;;;;;;;81.60;28.63;;;;;;;-17.13;67.65;100659.47;1735190;80;21108;-73
2021/01/20 06:33:13;;;;;;;82.73;29.27;;;;;;;-17.05;67.65;100657.38;1688726;82;21161;-80
2021/01/20 06:35:44;;;;;;;81.30;29.63;;;;;;;-16.93;67.45;100662.94;1734847;82;21145;-71
2021/01/20 06:38:33;;;;;;;80.63;29.63;;;;;;;-16.87;67.22;100667.52;1728225;81;21172;-74
2021/01/20 06:41:10;;;;;;;65.80;23.80;;;;;;;-16.84;67.14;100668.21;1719776;82;21670;-77
2021/01/20 06:43:46;;;;;;;65.07;24.03;;;;;;;-16.80;67.19;100665.88;1735940;81;21182;-79
2021/01/20 06:46:21;;;;;;;60.33;23.03;;;;;;;-16.75;67.23;100669.14;1721463;81;21132;-78
2021/01/20 06:49:01;;;;;;;76.23;23.87;;;;;;;-16.70;67.14;100670.23;1730937;81;21542;-71
2021/01/20 06:51:32;;;;;;;82.60;27.97;;;;;;;-16.70;67.17;100667.17;1733133;81;21129;-77
2021/01/20 06:54:13;;;;;;;83.57;28.07;;;;;;;-16.60;67.46;100671.53;1727707;81;21137;-78
2021/01/20 06:56:49;;;;;;;68.37;25.90;;;;;;;-16.54;67.59;100674.71;1698892;82;21129;-69
2021/01/20 06:59:30;;;;;;;83.17;27.90;;;;;;;-16.47;67.52;100673.51;1706215;81;21140;-70
2021/01/20 07:02:12;;;;;;;89.10;34.23;;;;;;;-16.35;67.46;100679.50;1726372;81;21110;-71
2021/01/20 07:04:45;;;;;;;105.63;39.10;;;;;;;-16.24;67.28;100681.15;1720743;82;21204;-77
2021/01/20 07:07:14;;;;;;;148.13;52.60;;;;;;;-16.19;67.10;100678.80;1724481;82;21549;-82
2021/01/20 07:09:59;;;;;;;138.53;50.23;;;;;;;-16.23;65.91;100685.94;1714952;81;21268;-71
2021/01/20 07:12:30;;;;;;;93.13;32.60;;;;;;;-16.47;66.36;100694.91;1740031;81;21298;-75
2021/01/20 07:14:58;;;;;;;92.17;33.90;;;;;;;-16.45;66.92;100701.78;1720696;81;21105;-74
2021/01/20 07:17:26;;;;;;;79.47;29.52;;;;;;;-16.43;66.25;100705.18;1670942;83;21133;-70
2021/01/20 07:19:53;;;;;;;;;;;;;;;-16.42;66.41;100704.28;1712373;81;21136;-77
2021/01/20 07:22:21;;;;;;;93.97;32.90;;;;;;;-16.43;66.22;100701.25;1688892;83;20497;-77
2021/01/20 07:24:49;;;;;;;95.22;35.60;;;;;;;-16.38;66.38;100703.66;1739542;81;21137;-77
2021/01/20 07:27:18;;;;;;;97.40;36.63;;;;;;;-16.40;66.11;100698.50;1734943;82;21570;-77
2021/01/20 07:29:47;;;;;;;114.70;41.23;;;;;;;-16.52;66.57;100710.02;1712739;81;21189;-76
2021/01/20 07:32:15;;;;;;;105.30;39.27;;;;;;;-16.50;67.25;100717.31;1714266;81;21199;-78
2021/01/20 07:34:44;;;;;;;110.23;37.43;;;;;;;-16.39;67.36;100721.14;1721157;81;21122;-79
2021/01/20 07:37:15;;;;;;;100.60;37.43;;;;;;;-16.36;67.25;100722.31;1727012;83;21624;-76
2021/01/20 07:39:44;;;;;;;94.30;34.60;;;;;;;-16.26;67.70;100724.92;1719831;81;21293;-77
2021/01/20 07:42:12;;;;;;;90.00;30.03;;;;;;;-16.02;67.60;100719.48;1723207;81;21121;-75
2021/01/20 07:44:48;;;;;;;83.33;28.67;;;;;;;-15.96;66.77;100725.28;1694204;82;21123;-78
2021/01/20 07:47:16;;;;;;;73.87;27.13;;;;;;;-15.88;66.90;100717.92;1723611;81;21600;-76
2021/01/20 07:49:56;;;;;;;86.87;30.20;;;;;;;-15.69;67.05;100715.30;1715364;81;21675;-77
2021/01/20 07:52:24;;;;;;;91.53;34.20;;;;;;;-15.47;66.58;100720.35;1686972;83;21664;-76
2021/01/20 07:54:52;;;;;;;89.60;30.52;;;;;;;-15.31;66.05;100718.21;1712681;81;21143;-78
2021/01/20 07:57:21;;;;;;;85.32;30.32;;;;;;;-15.23;66.14;100713.89;1711443;81;21189;-76
2021/01/20 08:00:11;;;;;;;78.73;30.33;;;;;;;-15.09;66.00;100719.30;1732806;81;21172;-77
2021/01/20 08:02:48;;;;;;;84.43;30.37;;;;;;;-14.95;65.64;100721.62;1718318;81;21118;-74
2021/01/20 08:05:17;;;;;;;85.87;29.80;;;;;;;-14.74;65.44;100722.77;1717276;81;21625;-78
2021/01/20 08:07:45;;;;;;;98.45;33.00;;;;;;;-14.64;64.77;100726.62;1723355;81;21082;-72
2021/01/20 08:10:21;;;;;;;;;;;;;;;-14.91;64.71;100735.45;1727503;82;21125;-77
2021/01/20 08:12:50;;;;;;;95.10;35.30;;;;;;;-14.89;65.22;100732.73;1694595;83;20160;-72
2021/01/20 08:18:02;;;;;;;79.20;30.07;;;;;;;-14.83;64.80;100729.36;1807687;77;22669;-79
2021/01/20 08:20:33;;;;;;;86.50;30.93;;;;;;;-14.90;65.21;100735.00;1749106;78;21190;-79
2021/01/20 08:23:03;;;;;;;81.07;28.67;;;;;;;-14.99;65.05;100733.21;1752187;80;21119;-79
2021/01/20 08:25:30;;;;;;;81.43;30.23;;;;;;;-14.89;65.76;100730.11;1741425;80;21109;-72
2021/01/20 08:28:16;;;;;;;72.67;26.37;;;;;;;-14.61;65.34;100734.36;1722688;80;21128;-79
2021/01/20 08:30:43;;;;;;;65.13;26.47;;;;;;;-14.40;64.92;100737.20;1712323;83;21229;-75
2021/01/20 08:33:18;;;;;;;63.87;24.40;;;;;;;-14.22;64.51;100734.90;1696253;83;21247;-78
2021/01/20 08:35:49;;;;;;;75.10;27.13;;;;;;;-14.32;63.82;100736.34;1696502;83;21113;-71
2021/01/20 08:38:27;;;;;;;67.20;24.90;;;;;;;-14.54;64.34;100738.36;1660004;83;21219;-79
2021/01/20 08:41:11;;;;;;;65.93;22.27;;;;;;;-14.64;65.18;100742.39;1706584;83;21145;-79
2021/01/20 08:43:39;;;;;;;46.53;17.93;;;;;;;-14.39;65.47;100738.42;1695230;83;21630;-79
2021/01/20 08:46:26;;;;;;;49.73;18.17;;;;;;;-14.27;64.55;100740.86;1701223;84;21398;-80
2021/01/20 08:48:57;;;;;;;51.53;19.83;;;;;;;-14.30;64.64;100728.73;1670133;83;21165;-72
2021/01/20 08:51:25;;;;;;;51.67;18.17;;;;;;;-14.19;65.11;100736.05;1686248;85;21602;-79
2021/01/20 08:53:53;;;;;;;44.50;17.23;;;;;;;-13.96;64.58;100737.45;1685597;83;21136;-71
2021/01/20 08:56:27;;;;;;;;;;;;;;;-13.74;64.10;100748.05;1685695;83;21624;-70
2021/01/20 08:58:57;;;;;;;41.77;13.97;;;;;;;-13.58;64.03;100750.66;1683451;83;20167;-78
2021/01/20 09:01:27;;;;;;;39.50;14.53;;;;;;;-13.34;63.44;100749.78;1715554;83;21115;-72
2021/01/20 09:04:02;;;;;;;47.87;17.30;;;;;;;-13.24;62.60;100743.05;1693543;83;21180;-72
2021/01/20 09:06:30;;;;;;;46.60;17.90;;;;;;;-13.33;62.88;100747.54;1695168;83;21164;-70
2021/01/20 09:08:58;;;;;;;43.30;17.62;;;;;;;-13.20;62.98;100757.73;1695607;82;21129;-72
2021/01/20 09:11:26;;;;;;;48.30;17.98;;;;;;;-13.03;62.67;100758.44;1725555;82;21180;-72
2021/01/20 09:13:54;;;;;;;51.83;18.92;;;;;;;-12.90;62.46;100766.52;1706651;84;21197;-72
2021/01/20 09:16:27;;;;;;;49.95;19.35;;;;;;;-12.85;62.01;100765.79;1696460;82;21322;-72
2021/01/20 09:18:56;;;;;;;52.90;20.53;;;;;;;-12.97;62.40;100763.38;1706239;84;21105;-71
2021/01/20 09:21:25;;;;;;;52.83;20.13;;;;;;;-12.82;62.33;100768.72;1694619;82;21541;-71
2021/01/20 09:23:53;;;;;;;57.33;19.83;;;;;;;-12.64;61.98;100767.16;1712099;82;21166;-78
2021/01/20 09:26:21;;;;;;;57.30;20.35;;;;;;;-12.50;61.84;100771.17;1712425;82;21113;-78
2021/01/20 09:28:49;;;;;;;48.50;20.35;;;;;;;-12.34;61.16;100768.44;1700537;83;21291;-77
2021/01/20 09:31:17;;;;;;;59.40;21.63;;;;;;;-12.28;60.83;100767.23;1693607;82;21629;-73
2021/01/20 09:33:45;;;;;;;57.60;21.55;;;;;;;-12.23;60.11;100761.21;1710048;82;21290;-70
2021/01/20 09:36:14;;;;;;;49.67;19.47;;;;;;;-12.19;60.49;100773.30;1669050;82;21140;-72
2021/01/20 09:38:42;;;;;;;46.70;18.67;;;;;;;-12.14;60.29;100765.45;1701554;83;21109;-69
2021/01/20 09:41:10;;;;;;;57.83;20.50;;;;;;;-12.12;60.21;100765.38;1709645;82;21141;-70
2021/01/20 09:43:39;;;;;;;57.20;20.47;;;;;;;-12.12;59.77;100760.10;1700742;82;21134;-69
2021/01/20 09:46:07;;;;;;;50.40;19.23;;;;;;;-12.09;60.33;100763.88;1705746;82;21256;-76
2021/01/20 09:48:35;;;;;;;50.67;19.52;;;;;;;-12.03;60.32;100762.17;1668871;83;21512;-78
2021/01/20 09:51:03;;;;;;;43.08;16.48;;;;;;;-12.01;59.06;100762.45;1705384;84;21207;-79
2021/01/20 09:53:31;;;;;;;40.80;15.83;;;;;;;-12.05;59.69;100769.34;1695901;82;21693;-78
2021/01/20 09:56:00;;;;;;;46.33;16.60;;;;;;;-12.01;59.74;100765.09;1700428;84;21188;-78
2021/01/20 09:58:28;;;;;;;42.60;17.90;;;;;;;-12.00;60.46;100763.31;1699224;82;21145;-77
2021/01/20 10:00:58;;;;;;;45.25;17.42;;;;;;;-11.98;60.85;100758.78;1687078;84;21465;-69
2021/01/20 10:03:26;;;;;;;46.57;18.43;;;;;;;-12.00;60.20;100761.52;1693595;82;21152;-69
2021/01/20 10:05:54;;;;;;;46.58;17.85;;;;;;;-11.94;60.78;100762.45;1687410;83;21193;-78
2021/01/20 10:08:21;;;;;;;42.05;17.07;;;;;;;-11.84;60.71;100770.67;1686730;82;21143;-70
2021/01/20 10:10:50;;;;;;;44.57;18.20;;;;;;;-11.81;60.69;100765.17;1701624;84;21145;-76
2021/01/20 10:13:19;;;;;;;47.58;17.82;;;;;;;-11.70;60.71;100766.23;1704467;82;21207;-78
2021/01/20 10:15:48;;;;;;;48.70;18.87;;;;;;;-11.59;60.03;100772.59;1667513;82;21560;-78
2021/01/20 10:18:16;;;;;;;47.53;18.57;;;;;;;-11.54;59.78;100768.73;1698971;83;21647;-77
2021/01/20 10:20:46;;;;;;;44.23;19.25;;;;;;;-11.61;58.82;100763.93;1709053;82;21367;-69
2021/01/20 10:23:15;;;;;;;50.83;20.47;;;;;;;-11.69;58.79;100762.63;1673339;84;21643;-72
2021/01/20 10:25:45;;;;;;;43.80;18.45;;;;;;;-11.82;59.02;100755.58;1700000;83;21232;-72
2021/01/20 10:28:13;;;;;;;52.60;19.83;;;;;;;-11.82;60.04;100751.63;1720464;83;21253;-72
2021/01/20 10:30:41;;;;;;;50.47;19.60;;;;;;;-11.68;60.25;100756.38;1697844;83;21129;-72
2021/01/20 10:33:10;;;;;;;54.23;21.10;;;;;;;-11.53;59.87;100756.38;1705344;84;21141;-72
2021/01/20 10:35:40;;;;;;;59.07;22.30;;;;;;;-11.55;58.76;100751.64;1693892;83;21639;-74
2021/01/20 10:38:08;;;;;;;55.03;21.30;;;;;;;-11.49;59.29;100746.84;1704584;83;21599;-73
2021/01/20 10:40:35;;;;;;;57.08;21.42;;;;;;;-11.42;58.62;100760.02;1697216;83;21115;-74
2021/01/20 10:43:03;;;;;;;54.38;20.55;;;;;;;-11.52;58.87;100756.27;1675224;85;21262;-72
2021/01/20 10:45:32;;;;;;;55.40;21.67;;;;;;;-11.46;59.27;100751.08;1697563;83;21183;-73
2021/01/20 10:48:02;;;;;;;54.77;21.20;;;;;;;-11.34;59.06;100753.78;1690282;83;21275;-83
2021/01/20 10:50:30;;;;;;;50.83;20.30;;;;;;;-11.24;59.60;100754.04;1697560;83;21227;-81
2021/01/20 10:52:57;;;;;;;49.35;19.12;;;;;;;-11.37;58.21;100759.26;1687662;84;21599;-83
2021/01/20 10:55:25;;;;;;;;;;;;;;;-11.47;58.88;100763.43;1689126;84;21124;-73
2021/01/20 10:57:53;;;;;;;52.27;20.48;;;;;;;-11.39;59.21;100755.02;1713679;83;20180;-73
2021/01/20 11:00:22;;;;;;;;;;;;;;;-11.31;58.89;100749.63;1698715;83;21144;-83
2021/01/20 11:02:50;;;;;;;53.97;18.07;;;;;;;-11.18;58.87;100748.38;1707301;81;20233;-80
2021/01/20 11:05:19;;;;;;;42.13;16.70;;;;;;;-11.01;58.26;100752.94;1700373;83;21615;-81
2021/01/20 11:07:47;;;;;;;43.73;16.65;;;;;;;-10.84;57.90;100745.67;1686338;83;21173;-72
2021/01/20 11:10:15;;;;;;;;;;;;;;;-10.69;57.35;100744.66;1700814;83;21141;-72
2021/01/20 11:12:43;;;;;;;41.88;16.52;;;;;;;-10.55;57.06;100744.09;1702442;83;20266;-72
2021/01/20 11:15:12;;;;;;;49.90;18.30;;;;;;;-10.61;56.67;100750.28;1699427;83;21120;-73
2021/01/20 11:17:40;;;;;;;47.97;17.57;;;;;;;-10.57;56.58;100752.62;1691742;83;21706;-73
2021/01/20 11:20:11;;;;;;;43.50;16.90;;;;;;;-10.49;56.36;100752.09;1689560;83;21159;-82
2021/01/20 11:22:39;;;;;;;48.43;18.07;;;;;;;-10.64;56.14;100750.48;1691557;83;21212;-80
2021/01/20 11:25:08;;;;;;;41.42;15.90;;;;;;;-10.69;56.69;100746.83;1703568;83;21217;-78
2021/01/20 11:27:38;;;;;;;43.97;16.23;;;;;;;-10.63;56.27;100752.19;1706794;83;21282;-79
2021/01/20 11:30:08;;;;;;;44.50;17.00;;;;;;;-10.72;56.61;100751.00;1667661;81;21189;-78
2021/01/20 11:32:36;;;;;;;42.37;16.13;;;;;;;-10.77;56.41;100755.73;1704557;82;21125;-68
2021/01/20 11:35:05;;;;;;;54.27;18.03;;;;;;;-10.73;56.51;100758.58;1702940;82;21168;-77